Time;durP1;ratioP1;P1;durP2;ratioP2;P2;SDS_P1;SDS_P2;PMS_P1;PMS_P2;Temp;Humidity;BMP_temperature;BMP_pressure;BME280_temperature;BME280_humidity;BME280_pressure;Samples;Min_cycle;Max_cycle;Signal;HPM_P1;HPM_P2
2023/04/07 00:02:27;;;;;;;13.68;9.57;;;;;;;;;;4966668;28;20426;-78
2023/04/07 00:04:57;;;;;;;15.93;8.30;;;;;;;;;;4934083;29;20073;-79
2023/04/07 00:07:25;;;;;;;13.15;6.60;;;;;;;;;;4949963;28;20425;-79
2023/04/07 00:09:52;;;;;;;12.88;7.35;;;;;;;;;;4950234;29;20058;-78
2023/04/07 00:12:20;;;;;;;21.45;9.60;;;;;;;;;;4949110;28;20162;-78
2023/04/07 00:14:47;;;;;;;21.52;7.88;;;;;;;;;;4964701;28;20050;-77
2023/04/07 00:17:14;;;;;;;18.88;8.45;;;;;;;;;;4968651;28;20491;-78
2023/04/07 00:19:42;;;;;;;24.73;11.07;;;;;;;;;;4968947;28;20054;-78
2023/04/07 00:22:10;;;;;;;18.17;10.00;;;;;;;;;;4968959;28;20065;-78
2023/04/07 00:24:37;;;;;;;16.48;9.80;;;;;;;;;;4968899;28;20089;-78
2023/04/07 00:27:05;;;;;;;19.30;12.30;;;;;;;;;;4968708;28;20051;-77
2023/04/07 00:29:32;;;;;;;14.75;9.63;;;;;;;;;;4968705;28;20051;-77
2023/04/07 00:45:23;;;;;;;9.07;5.85;;;;;;;;;;4912833;29;20083;-88
2023/04/07 00:53:54;;;;;;;6.10;5.55;;;;;;;;;;4834605;29;20923;-89
2023/04/07 01:00:19;;;;;;;9.65;6.90;;;;;;;;;;4965354;28;20039;-82
2023/04/07 01:02:57;;;;;;;6.18;4.65;;;;;;;;;;4954185;28;20070;-82
2023/04/07 01:05:29;;;;;;;10.52;9.43;;;;;;;;;;4937593;29;20058;-81
2023/04/07 01:08:00;;;;;;;5.45;4.88;;;;;;;;;;4938206;29;20055;-81
2023/04/07 01:10:33;;;;;;;8.40;5.32;;;;;;;;;;4938509;29;20047;-80
2023/04/07 01:13:05;;;;;;;7.45;5.75;;;;;;;;;;4923431;29;20078;-80
2023/04/07 01:15:33;;;;;;;6.78;5.55;;;;;;;;;;4938991;29;20055;-80
2023/04/07 01:18:14;;;;;;;5.25;4.65;;;;;;;;;;4940382;28;20054;-80
2023/04/07 01:20:43;;;;;;;8.32;5.22;;;;;;;;;;4954474;28;20062;-80
2023/04/07 01:23:11;;;;;;;6.78;5.47;;;;;;;;;;4914616;29;20051;-81
2023/04/07 01:25:45;;;;;;;7.30;5.38;;;;;;;;;;4932431;29;20070;-80
2023/04/07 01:28:32;;;;;;;9.15;7.85;;;;;;;;;;4954144;28;20134;-81
2023/04/07 01:30:59;;;;;;;7.50;5.38;;;;;;;;;;4935983;28;20047;-81
2023/04/07 01:33:28;;;;;;;5.55;4.35;;;;;;;;;;4950223;28;20090;-80
2023/04/07 01:35:57;;;;;;;11.45;10.48;;;;;;;;;;4939839;29;20054;-81
2023/04/07 01:38:24;;;;;;;7.15;5.18;;;;;;;;;;4942752;28;20531;-81
2023/04/07 01:40:53;;;;;;;6.68;6.07;;;;;;;;;;4958045;28;20055;-81
2023/04/07 01:43:21;;;;;;;7.32;4.85;;;;;;;;;;4973821;28;20043;-81
2023/04/07 01:45:49;;;;;;;7.53;5.65;;;;;;;;;;4941292;29;20047;-81
2023/04/07 01:48:17;;;;;;;6.50;5.43;;;;;;;;;;4933092;29;20079;-81
2023/04/07 01:50:45;;;;;;;8.73;5.85;;;;;;;;;;4948944;28;20442;-81
2023/04/07 01:53:14;;;;;;;6.15;5.47;;;;;;;;;;4955012;28;20159;-81
2023/04/07 01:55:43;;;;;;;6.20;5.10;;;;;;;;;;4960043;28;20058;-81
2023/04/07 01:58:10;;;;;;;8.45;7.03;;;;;;;;;;4936057;28;20054;-81
2023/04/07 02:00:41;;;;;;;8.98;5.43;;;;;;;;;;4950190;29;20050;-81
2023/04/07 02:03:19;;;;;;;5.82;4.38;;;;;;;;;;4938629;28;20050;-81
2023/04/07 02:05:50;;;;;;;6.78;4.97;;;;;;;;;;4938227;29;20043;-81
2023/04/07 02:08:19;;;;;;;5.97;4.93;;;;;;;;;;4941352;28;20050;-81
2023/04/07 02:10:48;;;;;;;9.48;4.72;;;;;;;;;;4968201;28;20053;-81
2023/04/07 02:13:18;;;;;;;6.70;5.38;;;;;;;;;;4972046;28;20050;-81
2023/04/07 02:15:47;;;;;;;;;;;;;;;;;;4974639;28;20055;-81
2023/04/07 02:18:17;;;;;;;5.53;4.40;;;;;;;;;;4953826;28;19961;-81
2023/04/07 02:20:45;;;;;;;5.88;4.28;;;;;;;;;;4935449;29;20051;-81
2023/04/07 02:23:13;;;;;;;5.72;4.88;;;;;;;;;;4958173;28;20690;-81
2023/04/07 02:25:41;;;;;;;5.00;4.30;;;;;;;;;;4963839;28;20062;-82
2023/04/07 02:28:08;;;;;;;7.10;5.68;;;;;;;;;;4939273;28;20323;-81
2023/04/07 02:30:35;;;;;;;5.68;4.28;;;;;;;;;;4946643;29;20046;-81
2023/04/07 02:33:03;;;;;;;13.40;10.75;;;;;;;;;;4940183;28;20601;-82
2023/04/07 02:35:32;;;;;;;6.75;5.22;;;;;;;;;;4941686;28;20436;-81
2023/04/07 02:38:01;;;;;;;7.13;5.22;;;;;;;;;;4954314;28;20489;-81
2023/04/07 02:40:29;;;;;;;8.95;4.88;;;;;;;;;;4924471;29;20469;-81
2023/04/07 02:42:56;;;;;;;7.28;5.70;;;;;;;;;;4938947;28;20457;-82
2023/04/07 02:45:24;;;;;;;5.97;4.97;;;;;;;;;;4956956;28;20055;-81
2023/04/07 02:47:51;;;;;;;6.30;5.30;;;;;;;;;;4957726;29;20063;-81
2023/04/07 02:50:19;;;;;;;6.82;5.38;;;;;;;;;;4962905;28;20066;-81
2023/04/07 02:52:46;;;;;;;6.82;5.30;;;;;;;;;;4950911;28;20142;-81
2023/04/07 02:55:15;;;;;;;4.93;4.32;;;;;;;;;;4950373;28;20047;-81
2023/04/07 02:57:42;;;;;;;5.45;4.95;;;;;;;;;;4940338;29;20055;-82
2023/04/07 03:00:26;;;;;;;5.50;5.00;;;;;;;;;;4933550;28;20051;-81
2023/04/07 03:03:01;;;;;;;7.13;6.07;;;;;;;;;;4934347;29;20054;-82
2023/04/07 03:05:32;;;;;;;5.40;4.72;;;;;;;;;;4937139;29;20533;-81
2023/04/07 03:08:01;;;;;;;7.10;5.53;;;;;;;;;;4946044;28;20087;-81
2023/04/07 03:10:29;;;;;;;7.82;5.40;;;;;;;;;;4945769;28;20777;-81
2023/04/07 03:12:57;;;;;;;5.90;5.10;;;;;;;;;;4955441;28;20586;-82
2023/04/07 03:15:24;;;;;;;5.00;4.25;;;;;;;;;;4931956;29;20051;-81
2023/04/07 03:17:52;;;;;;;6.57;5.88;;;;;;;;;;4915180;29;20548;-81
2023/04/07 03:20:20;;;;;;;6.57;5.38;;;;;;;;;;4930174;29;20047;-81
2023/04/07 03:22:47;;;;;;;6.90;6.20;;;;;;;;;;4946105;28;20506;-81
2023/04/07 03:25:26;;;;;;;6.38;5.32;;;;;;;;;;4929436;28;20059;-82
2023/04/07 03:27:54;;;;;;;8.70;5.43;;;;;;;;;;4921101;29;20429;-81
2023/04/07 03:30:25;;;;;;;6.35;5.05;;;;;;;;;;4967450;28;20417;-81
2023/04/07 03:32:52;;;;;;;5.18;4.68;;;;;;;;;;4951368;28;20549;-81
2023/04/07 03:35:20;;;;;;;6.45;5.25;;;;;;;;;;4936173;28;20043;-81
2023/04/07 03:37:47;;;;;;;6.88;5.15;;;;;;;;;;4942470;29;20047;-81
2023/04/07 03:40:17;;;;;;;5.40;4.40;;;;;;;;;;4945051;28;20047;-82
2023/04/07 03:42:46;;;;;;;6.50;5.43;;;;;;;;;;4933269;29;20051;-81
2023/04/07 03:45:16;;;;;;;6.13;5.28;;;;;;;;;;4931769;28;20129;-82
2023/04/07 03:47:47;;;;;;;7.38;5.28;;;;;;;;;;4933437;29;20154;-82
2023/04/07 03:50:16;;;;;;;7.00;5.43;;;;;;;;;;4952878;28;20067;-82
2023/04/07 03:52:55;;;;;;;7.82;6.93;;;;;;;;;;4939394;28;20047;-81
2023/04/07 03:55:25;;;;;;;7.68;5.20;;;;;;;;;;4939545;28;20615;-82
2023/04/07 03:57:57;;;;;;;;;;;;;;;;;;4942782;29;20070;-82
2023/04/07 04:00:30;;;;;;;5.32;4.03;;;;;;;;;;4933624;28;19930;-81
2023/04/07 04:03:05;;;;;;;5.72;5.15;;;;;;;;;;4948192;28;20509;-81
2023/04/07 04:05:36;;;;;;;7.13;5.15;;;;;;;;;;4936044;28;20059;-81
2023/04/07 04:08:03;;;;;;;6.80;4.65;;;;;;;;;;4938357;29;20594;-81
2023/04/07 04:10:33;;;;;;;5.55;4.88;;;;;;;;;;4949791;28;20046;-81
2023/04/07 04:13:02;;;;;;;7.22;6.10;;;;;;;;;;4951307;29;20045;-80
2023/04/07 04:15:30;;;;;;;6.70;5.57;;;;;;;;;;4940388;29;20043;-81
2023/04/07 04:17:59;;;;;;;8.63;5.88;;;;;;;;;;4957819;28;20119;-81
2023/04/07 04:20:27;;;;;;;7.55;5.13;;;;;;;;;;4940124;28;20070;-81
2023/04/07 04:22:54;;;;;;;7.00;5.63;;;;;;;;;;4937061;29;20082;-81
2023/04/07 04:25:22;;;;;;;6.43;5.03;;;;;;;;;;4941541;28;20047;-81
2023/04/07 04:27:53;;;;;;;6.72;6.03;;;;;;;;;;4944339;29;20053;-81
2023/04/07 04:30:24;;;;;;;8.60;4.57;;;;;;;;;;4936251;28;20497;-81
2023/04/07 04:32:56;;;;;;;6.95;5.75;;;;;;;;;;4942897;28;20047;-81
2023/04/07 04:35:36;;;;;;;7.05;5.53;;;;;;;;;;4945295;28;20090;-81
2023/04/07 04:38:10;;;;;;;9.10;6.10;;;;;;;;;;4934700;28;20117;-82
2023/04/07 04:40:42;;;;;;;8.73;5.57;;;;;;;;;;4951701;28;20437;-81
2023/04/07 04:43:11;;;;;;;7.47;5.45;;;;;;;;;;4942665;28;20047;-81
2023/04/07 04:45:40;;;;;;;8.38;4.97;;;;;;;;;;4947298;28;20457;-81
2023/04/07 04:48:10;;;;;;;6.32;4.97;;;;;;;;;;4933364;28;20051;-81
2023/04/07 04:50:38;;;;;;;6.30;5.10;;;;;;;;;;4933372;29;20043;-81
2023/04/07 04:53:10;;;;;;;;;;;;;;;;;;4942635;28;20055;-82
2023/04/07 04:55:50;;;;;;;5.78;4.60;;;;;;;;;;4938616;29;19934;-81
2023/04/07 04:58:21;;;;;;;7.60;6.32;;;;;;;;;;4936201;28;20052;-84
2023/04/07 05:00:56;;;;;;;8.32;5.40;;;;;;;;;;4947239;28;20050;-82
2023/04/07 05:03:50;;;;;;;5.47;4.50;;;;;;;;;;4960030;28;20043;-82
2023/04/07 05:06:22;;;;;;;5.05;4.50;;;;;;;;;;4941594;28;20075;-81
2023/04/07 05:08:52;;;;;;;5.93;5.32;;;;;;;;;;4941571;28;20598;-81
2023/04/07 05:11:23;;;;;;;8.60;6.32;;;;;;;;;;4952418;28;20645;-81
2023/04/07 05:14:20;;;;;;;7.82;6.38;;;;;;;;;;4936734;29;20051;-82
2023/04/07 05:17:06;;;;;;;5.13;4.63;;;;;;;;;;4940056;28;20047;-82
2023/04/07 05:19:34;;;;;;;6.38;5.15;;;;;;;;;;4960797;28;20067;-82
2023/04/07 05:22:09;;;;;;;8.80;6.55;;;;;;;;;;4941370;28;20046;-83
2023/04/07 05:24:44;;;;;;;8.07;6.00;;;;;;;;;;4951598;28;20058;-81
2023/04/07 05:27:12;;;;;;;10.32;7.90;;;;;;;;;;4935231;29;20044;-82
2023/04/07 05:29:40;;;;;;;9.13;8.05;;;;;;;;;;4934798;29;20118;-81
2023/04/07 05:32:16;;;;;;;5.72;5.15;;;;;;;;;;4934968;28;20070;-81
2023/04/07 05:34:44;;;;;;;10.18;7.00;;;;;;;;;;4940663;28;20102;-81
2023/04/07 05:37:21;;;;;;;8.35;6.80;;;;;;;;;;4951465;28;20539;-82
2023/04/07 05:40:24;;;;;;;6.22;5.22;;;;;;;;;;4934612;29;20126;-85
2023/04/07 05:42:56;;;;;;;6.95;6.25;;;;;;;;;;4941527;28;20059;-80
2023/04/07 05:45:28;;;;;;;7.72;6.18;;;;;;;;;;4930637;28;20150;-81
2023/04/07 05:47:55;;;;;;;7.65;6.90;;;;;;;;;;4940613;28;20050;-81
2023/04/07 05:50:31;;;;;;;8.25;7.28;;;;;;;;;;4936965;29;20051;-82
2023/04/07 05:53:01;;;;;;;6.53;5.32;;;;;;;;;;4941752;28;20098;-82
2023/04/07 05:55:28;;;;;;;7.00;6.07;;;;;;;;;;4931651;28;20058;-83
2023/04/07 05:57:56;;;;;;;8.43;6.97;;;;;;;;;;4931864;28;20054;-83
2023/04/07 06:00:27;;;;;;;8.35;7.15;;;;;;;;;;4933507;28;20059;-83
2023/04/07 06:03:04;;;;;;;10.13;8.55;;;;;;;;;;4935039;29;20043;-81
2023/04/07 06:05:42;;;;;;;10.82;8.10;;;;;;;;;;4953584;28;20079;-83
2023/04/07 06:08:11;;;;;;;12.13;7.40;;;;;;;;;;4935163;28;20062;-81
2023/04/07 06:10:40;;;;;;;10.13;7.47;;;;;;;;;;4954088;28;20101;-80
2023/04/07 06:13:08;;;;;;;10.98;8.02;;;;;;;;;;4950583;28;20480;-82
2023/04/07 06:15:35;;;;;;;7.45;6.10;;;;;;;;;;4933630;29;20047;-81
2023/04/07 06:18:03;;;;;;;9.25;7.10;;;;;;;;;;4929038;29;20136;-80
2023/04/07 06:20:30;;;;;;;7.78;6.50;;;;;;;;;;4953153;28;20486;-80
2023/04/07 06:22:58;;;;;;;8.05;6.63;;;;;;;;;;4936342;29;20130;-81
2023/04/07 06:25:26;;;;;;;7.95;7.15;;;;;;;;;;4925401;28;20578;-80
2023/04/07 06:27:54;;;;;;;8.68;6.93;;;;;;;;;;4925747;28;20043;-80
2023/04/07 06:33:27;;;;;;;11.13;7.53;;;;;;;;;;4892863;29;20073;-77
2023/04/07 06:35:57;;;;;;;11.57;7.60;;;;;;;;;;4880220;29;20327;-78
2023/04/07 06:38:26;;;;;;;10.27;7.28;;;;;;;;;;4892426;29;20044;-78
2023/04/07 06:40:53;;;;;;;10.65;7.35;;;;;;;;;;4897037;29;20627;-77
2023/04/07 06:43:21;;;;;;;9.45;7.10;;;;;;;;;;4898661;29;20048;-78
2023/04/07 06:45:56;;;;;;;11.43;6.90;;;;;;;;;;4878012;29;20336;-76
2023/04/07 06:48:24;;;;;;;9.18;7.10;;;;;;;;;;4893557;29;20049;-77
2023/04/07 06:50:52;;;;;;;11.23;7.50;;;;;;;;;;4895017;29;20426;-76
2023/04/07 06:53:20;;;;;;;10.82;7.97;;;;;;;;;;4899990;29;20411;-77
2023/04/07 06:55:47;;;;;;;13.52;7.40;;;;;;;;;;4893665;29;20048;-78
2023/04/07 06:58:15;;;;;;;8.63;7.55;;;;;;;;;;4892567;29;20044;-77
2023/04/07 07:00:42;;;;;;;11.15;6.75;;;;;;;;;;4890282;29;20056;-77
2023/04/07 07:03:09;;;;;;;10.43;7.57;;;;;;;;;;4908272;29;20033;-77
2023/04/07 07:05:37;;;;;;;8.00;7.15;;;;;;;;;;4902755;29;20052;-77
2023/04/07 07:08:04;;;;;;;10.32;7.25;;;;;;;;;;4901103;29;20222;-78
2023/04/07 07:10:32;;;;;;;29.42;19.65;;;;;;;;;;4901132;29;20143;-77
2023/04/07 07:13:01;;;;;;;9.50;8.50;;;;;;;;;;4901257;29;20159;-77
2023/04/07 07:15:34;;;;;;;9.43;7.35;;;;;;;;;;4902565;29;20054;-78
2023/04/07 07:18:01;;;;;;;9.57;8.02;;;;;;;;;;4900127;29;20569;-78
2023/04/07 07:20:29;;;;;;;13.23;9.35;;;;;;;;;;4900591;29;20518;-77
2023/04/07 07:22:58;;;;;;;10.80;7.82;;;;;;;;;;4904471;29;20055;-78
2023/04/07 07:25:26;;;;;;;11.63;7.75;;;;;;;;;;4909729;29;20604;-78
2023/04/07 07:27:54;;;;;;;36.70;20.80;;;;;;;;;;4908263;29;20063;-78
2023/04/07 07:30:22;;;;;;;17.08;12.38;;;;;;;;;;4903484;29;20130;-78
2023/04/07 07:32:52;;;;;;;32.92;20.35;;;;;;;;;;4898796;29;20221;-77
2023/04/07 07:35:20;;;;;;;13.02;9.10;;;;;;;;;;4899806;29;20138;-78
2023/04/07 07:37:48;;;;;;;12.65;9.45;;;;;;;;;;4908304;29;20060;-76
2023/04/07 07:40:15;;;;;;;12.38;9.63;;;;;;;;;;4901368;29;20055;-78
2023/04/07 07:42:43;;;;;;;12.05;7.68;;;;;;;;;;4904916;29;20084;-78
2023/04/07 07:45:12;;;;;;;8.95;7.50;;;;;;;;;;4892173;29;20136;-77
2023/04/07 07:47:42;;;;;;;;;;;;;;;;;;4908225;29;20119;-77
2023/04/07 07:50:10;;;;;;;7.50;6.25;;;;;;;;;;4892235;29;20034;-78
2023/04/07 07:52:37;;;;;;;13.10;8.05;;;;;;;;;;4907113;29;20048;-78
2023/04/07 07:55:05;;;;;;;10.60;7.38;;;;;;;;;;4901793;29;20131;-78
2023/04/07 07:57:32;;;;;;;8.90;7.90;;;;;;;;;;4909302;29;20067;-78
2023/04/07 08:00:00;;;;;;;9.13;8.13;;;;;;;;;;4907062;29;20052;-78
2023/04/07 08:02:30;;;;;;;9.38;8.07;;;;;;;;;;4901574;29;20111;-79
2023/04/07 08:04:58;;;;;;;9.95;8.00;;;;;;;;;;4904658;29;20048;-79
2023/04/07 08:07:26;;;;;;;13.60;8.25;;;;;;;;;;4905706;29;22773;-78
2023/04/07 08:09:59;;;;;;;11.10;7.68;;;;;;;;;;4904128;29;20067;-78
2023/04/07 08:12:38;;;;;;;10.93;7.75;;;;;;;;;;4901470;29;20057;-79
2023/04/07 08:15:08;;;;;;;8.60;7.70;;;;;;;;;;4904323;29;20090;-79
2023/04/07 08:17:36;;;;;;;8.60;7.70;;;;;;;;;;4907449;29;20047;-78
2023/04/07 08:20:04;;;;;;;9.63;7.68;;;;;;;;;;4907769;29;20072;-78
2023/04/07 08:22:32;;;;;;;15.75;10.23;;;;;;;;;;4907585;29;20091;-79
2023/04/07 08:25:00;;;;;;;12.10;7.80;;;;;;;;;;4907849;29;20059;-79
2023/04/07 08:27:27;;;;;;;10.13;7.78;;;;;;;;;;4907999;29;20040;-79
2023/04/07 08:29:59;;;;;;;9.68;8.65;;;;;;;;;;4907574;29;20135;-79
2023/04/07 08:32:33;;;;;;;12.05;9.13;;;;;;;;;;4907492;29;20040;-79
2023/04/07 08:35:01;;;;;;;21.35;19.17;;;;;;;;;;4898240;29;20147;-78
2023/04/07 08:37:28;;;;;;;17.95;10.55;;;;;;;;;;4887635;29;20135;-79
2023/04/07 08:39:55;;;;;;;6.82;6.07;;;;;;;;;;4900432;29;20171;-79
2023/04/07 08:42:26;;;;;;;13.15;7.53;;;;;;;;;;4904618;29;20040;-75
2023/04/07 08:44:56;;;;;;;16.25;14.65;;;;;;;;;;4902013;29;20067;-77
2023/04/07 08:47:26;;;;;;;9.68;7.47;;;;;;;;;;4905033;29;20056;-75
2023/04/07 08:49:55;;;;;;;14.63;13.07;;;;;;;;;;4904263;29;20079;-76
2023/04/07 08:52:28;;;;;;;8.88;8.00;;;;;;;;;;4905673;29;20048;-77
2023/04/07 08:54:57;;;;;;;9.65;8.05;;;;;;;;;;4907969;29;22095;-76
2023/04/07 08:57:24;;;;;;;9.00;7.70;;;;;;;;;;4904732;29;20486;-76
2023/04/07 08:59:54;;;;;;;11.77;7.72;;;;;;;;;;4902386;29;20052;-76
2023/04/07 09:02:22;;;;;;;8.52;7.30;;;;;;;;;;4898923;29;20518;-76
2023/04/07 09:04:49;;;;;;;9.30;7.35;;;;;;;;;;4898175;29;20045;-76
2023/04/07 09:07:17;;;;;;;9.85;8.10;;;;;;;;;;4896979;29;20040;-79
2023/04/07 09:09:44;;;;;;;8.35;7.55;;;;;;;;;;4900076;29;20056;-77
2023/04/07 09:12:11;;;;;;;10.40;7.80;;;;;;;;;;4900554;29;20477;-78
2023/04/07 09:14:39;;;;;;;11.48;8.57;;;;;;;;;;4899844;29;20056;-77
2023/04/07 09:17:06;;;;;;;10.73;9.63;;;;;;;;;;4902382;29;20066;-78
2023/04/07 09:19:34;;;;;;;9.95;8.98;;;;;;;;;;4902592;29;20502;-79
2023/04/07 09:22:01;;;;;;;12.77;9.32;;;;;;;;;;4902682;29;20056;-77
2023/04/07 09:24:32;;;;;;;26.20;23.98;;;;;;;;;;4901118;29;20593;-79
2023/04/07 09:27:12;;;;;;;17.60;15.77;;;;;;;;;;4901076;29;20464;-79
2023/04/07 09:29:45;;;;;;;18.38;16.77;;;;;;;;;;4904165;29;20044;-76
2023/04/07 09:32:21;;;;;;;13.32;12.10;;;;;;;;;;4902807;29;20577;-77
2023/04/07 09:34:59;;;;;;;23.67;21.70;;;;;;;;;;4900012;29;20084;-78
2023/04/07 09:37:26;;;;;;;16.98;15.38;;;;;;;;;;4901498;29;20056;-80
2023/04/07 09:39:54;;;;;;;13.40;9.43;;;;;;;;;;4903779;29;20136;-78
2023/04/07 09:42:25;;;;;;;13.48;12.18;;;;;;;;;;4898629;29;20040;-77
2023/04/07 09:44:59;;;;;;;10.60;9.20;;;;;;;;;;4958471;23;20043;-79
2023/04/07 09:47:28;;;;;;;12.02;10.75;;;;;;;;;;4960943;28;20047;-80
2023/04/07 09:50:05;;;;;;;16.52;14.98;;;;;;;;;;4957899;28;20044;-76
2023/04/07 09:52:50;;;;;;;14.55;13.00;;;;;;;;;;4959643;28;20051;-79
2023/04/07 09:55:21;;;;;;;12.02;10.75;;;;;;;;;;4954820;28;20082;-78
2023/04/07 09:57:54;;;;;;;13.93;12.60;;;;;;;;;;4956444;28;20142;-77
2023/04/07 10:00:22;;;;;;;11.40;10.27;;;;;;;;;;4951978;28;20172;-79
2023/04/07 10:02:50;;;;;;;302.48;280.10;;;;;;;;;;4957741;28;20058;-77
2023/04/07 10:05:20;;;;;;;13.82;12.30;;;;;;;;;;4955408;28;20087;-76
2023/04/07 10:07:48;;;;;;;11.10;9.93;;;;;;;;;;4949344;28;20133;-77
2023/04/07 10:10:16;;;;;;;13.98;8.77;;;;;;;;;;4949774;28;20142;-77
2023/04/07 10:12:43;;;;;;;11.80;10.35;;;;;;;;;;4955010;28;20524;-77
2023/04/07 10:15:14;;;;;;;10.82;9.10;;;;;;;;;;4952121;28;20051;-78
2023/04/07 10:17:47;;;;;;;12.30;8.90;;;;;;;;;;4953234;28;20376;-79
2023/04/07 10:20:17;;;;;;;11.30;9.63;;;;;;;;;;4956688;28;20090;-78
2023/04/07 10:22:46;;;;;;;17.35;15.68;;;;;;;;;;4953705;28;20097;-78
2023/04/07 10:25:15;;;;;;;11.82;10.30;;;;;;;;;;4952302;28;20054;-78
2023/04/07 10:27:50;;;;;;;11.57;10.38;;;;;;;;;;4946418;28;20054;-77
2023/04/07 10:30:20;;;;;;;14.27;12.27;;;;;;;;;;4956375;28;20118;-77
2023/04/07 10:32:49;;;;;;;14.15;12.63;;;;;;;;;;4953820;28;20592;-77
2023/04/07 10:35:17;;;;;;;12.85;11.55;;;;;;;;;;4958990;28;20101;-79
2023/04/07 10:38:03;;;;;;;12.43;11.23;;;;;;;;;;4952019;28;20051;-77
2023/04/07 10:40:35;;;;;;;12.90;11.68;;;;;;;;;;4949602;28;20054;-77
2023/04/07 10:43:03;;;;;;;16.52;14.98;;;;;;;;;;4958271;28;20054;-79
2023/04/07 10:45:50;;;;;;;15.90;14.48;;;;;;;;;;4942811;28;20050;-77
2023/04/07 10:48:18;;;;;;;56.95;52.75;;;;;;;;;;4960044;28;20541;-79
2023/04/07 10:50:47;;;;;;;18.92;17.30;;;;;;;;;;4959481;28;20103;-79
2023/04/07 10:53:15;;;;;;;37.85;34.70;;;;;;;;;;4951874;28;20122;-78
2023/04/07 10:55:43;;;;;;;34.13;31.33;;;;;;;;;;4934388;28;20058;-77
2023/04/07 10:58:14;;;;;;;14.18;12.88;;;;;;;;;;4958293;28;20571;-78
2023/04/07 11:00:42;;;;;;;17.75;16.02;;;;;;;;;;4958604;28;20133;-77
2023/04/07 11:03:12;;;;;;;16.73;15.20;;;;;;;;;;4960031;28;20147;-78
2023/04/07 11:05:40;;;;;;;25.70;23.25;;;;;;;;;;4955503;28;20440;-78
2023/04/07 11:08:07;;;;;;;10.88;9.77;;;;;;;;;;4956336;28;20075;-80
2023/04/07 11:10:35;;;;;;;12.43;11.13;;;;;;;;;;4960488;28;20038;-79
2023/04/07 11:13:09;;;;;;;13.65;12.35;;;;;;;;;;4940141;28;20390;-78
2023/04/07 11:15:37;;;;;;;13.07;9.88;;;;;;;;;;4939169;28;20039;-77
2023/04/07 11:18:16;;;;;;;13.70;12.40;;;;;;;;;;4952870;28;20055;-79
2023/04/07 11:20:47;;;;;;;13.10;11.85;;;;;;;;;;4959374;28;20047;-78
2023/04/07 11:23:16;;;;;;;12.43;11.13;;;;;;;;;;4957984;28;20061;-79
2023/04/07 11:25:45;;;;;;;17.20;10.02;;;;;;;;;;4958359;28;20070;-80
2023/04/07 11:28:13;;;;;;;15.27;12.98;;;;;;;;;;4955520;28;20043;-77
2023/04/07 11:30:53;;;;;;;12.90;11.68;;;;;;;;;;4954620;28;20059;-79
2023/04/07 11:33:26;;;;;;;13.75;12.45;;;;;;;;;;4956364;28;20053;-79
2023/04/07 11:36:02;;;;;;;11.18;10.07;;;;;;;;;;4953168;28;20058;-80
2023/04/07 11:38:37;;;;;;;14.80;13.48;;;;;;;;;;4936936;28;20711;-77
2023/04/07 11:41:11;;;;;;;12.90;11.52;;;;;;;;;;4949235;28;20042;-79
2023/04/07 11:43:40;;;;;;;56.53;51.63;;;;;;;;;;4948192;28;20511;-79
2023/04/07 11:46:09;;;;;;;15.40;11.63;;;;;;;;;;4952284;28;20051;-77
2023/04/07 11:48:38;;;;;;;13.50;12.20;;;;;;;;;;4954674;28;20046;-80
2023/04/07 11:51:06;;;;;;;15.05;13.55;;;;;;;;;;4954283;28;20038;-79
2023/04/07 11:53:36;;;;;;;11.93;10.02;;;;;;;;;;4954813;28;20051;-79
2023/04/07 11:56:09;;;;;;;14.32;12.27;;;;;;;;;;4952153;28;20051;-79
2023/04/07 11:58:37;;;;;;;13.70;12.23;;;;;;;;;;4954385;28;20166;-78
2023/04/07 12:01:07;;;;;;;20.17;18.38;;;;;;;;;;4949712;28;20050;-80
2023/04/07 12:03:36;;;;;;;12.38;11.10;;;;;;;;;;4950921;28;20216;-79
2023/04/07 12:06:04;;;;;;;42.88;39.42;;;;;;;;;;4954608;28;20051;-79
2023/04/07 12:08:41;;;;;;;40.00;37.15;;;;;;;;;;4960133;28;20049;-78
2023/04/07 12:11:09;;;;;;;17.02;15.48;;;;;;;;;;4956398;28;20074;-77
2023/04/07 12:13:37;;;;;;;30.00;27.50;;;;;;;;;;4959405;28;20496;-79
2023/04/07 12:16:05;;;;;;;14.85;13.43;;;;;;;;;;4960761;28;20416;-80
2023/04/07 12:18:32;;;;;;;16.20;14.80;;;;;;;;;;4960632;28;20590;-79
2023/04/07 12:21:00;;;;;;;15.05;9.32;;;;;;;;;;4959339;28;20047;-79
2023/04/07 12:23:28;;;;;;;17.30;15.65;;;;;;;;;;4959348;28;20057;-80
2023/04/07 12:25:55;;;;;;;11.60;10.40;;;;;;;;;;4957050;28;20078;-78
2023/04/07 12:28:23;;;;;;;12.82;9.25;;;;;;;;;;4957730;28;20039;-79
2023/04/07 12:33:53;;;;;;;11.50;9.93;;;;;;;;;;4948988;23;20059;-84
2023/04/07 12:36:21;;;;;;;9.05;7.55;;;;;;;;;;4944078;28;20078;-84
2023/04/07 12:38:49;;;;;;;17.80;16.20;;;;;;;;;;4957881;28;20131;-83
2023/04/07 12:41:16;;;;;;;10.40;8.88;;;;;;;;;;4954784;28;20051;-82
2023/04/07 12:43:44;;;;;;;10.50;9.10;;;;;;;;;;4956173;28;20122;-83
2023/04/07 12:46:13;;;;;;;10.63;9.63;;;;;;;;;;4946281;28;20106;-81
2023/04/07 12:48:41;;;;;;;12.35;11.27;;;;;;;;;;4954143;28;20142;-81
2023/04/07 12:51:09;;;;;;;15.77;14.48;;;;;;;;;;4945143;28;20051;-82
2023/04/07 12:53:36;;;;;;;12.70;11.45;;;;;;;;;;4952849;28;20057;-81
2023/04/07 12:56:04;;;;;;;8.77;7.97;;;;;;;;;;4949871;28;20055;-81
2023/04/07 12:58:32;;;;;;;9.02;8.10;;;;;;;;;;4953537;28;20325;-80
2023/04/07 13:00:59;;;;;;;9.48;8.45;;;;;;;;;;4942840;29;20083;-82
2023/04/07 13:03:27;;;;;;;96.45;88.75;;;;;;;;;;4959735;28;20070;-83
2023/04/07 13:05:55;;;;;;;12.60;11.52;;;;;;;;;;4967192;28;20142;-83
2023/04/07 13:08:22;;;;;;;9.10;8.30;;;;;;;;;;4958131;28;20167;-82
2023/04/07 13:10:50;;;;;;;12.57;11.50;;;;;;;;;;4935979;29;20054;-80
2023/04/07 13:13:17;;;;;;;132.55;122.57;;;;;;;;;;4930965;28;20043;-83
2023/04/07 13:15:45;;;;;;;9.45;8.57;;;;;;;;;;4946296;28;20039;-79
2023/04/07 13:18:12;;;;;;;10.68;9.45;;;;;;;;;;4946418;28;20476;-85
2023/04/07 13:20:40;;;;;;;24.95;22.92;;;;;;;;;;4949646;28;20139;-82
2023/04/07 13:23:08;;;;;;;10.00;9.00;;;;;;;;;;4932231;29;20083;-83
2023/04/07 13:25:38;;;;;;;11.13;8.73;;;;;;;;;;4948057;29;20478;-80
2023/04/07 13:28:05;;;;;;;10.70;9.77;;;;;;;;;;4947323;29;20048;-81
2023/04/07 13:30:48;;;;;;;14.45;8.75;;;;;;;;;;4946942;29;20043;-81
2023/04/07 13:33:36;;;;;;;11.02;9.90;;;;;;;;;;4937565;29;20067;-83
2023/04/07 13:36:04;;;;;;;11.13;10.23;;;;;;;;;;4952965;29;20040;-84
2023/04/07 13:38:31;;;;;;;25.02;22.70;;;;;;;;;;4951515;29;20039;-84
2023/04/07 13:40:59;;;;;;;10.85;8.73;;;;;;;;;;4933824;29;20091;-81
2023/04/07 13:43:26;;;;;;;13.82;10.05;;;;;;;;;;4922338;29;20051;-80
2023/04/07 13:45:55;;;;;;;8.23;7.53;;;;;;;;;;4941154;29;20066;-84
2023/04/07 13:48:22;;;;;;;10.05;7.30;;;;;;;;;;4947012;29;20570;-83
2023/04/07 13:50:49;;;;;;;14.07;12.73;;;;;;;;;;4960028;29;20051;-81
2023/04/07 13:53:17;;;;;;;10.07;9.02;;;;;;;;;;4960000;29;20058;-83
2023/04/07 13:55:45;;;;;;;7.43;6.70;;;;;;;;;;4951844;28;20047;-81
2023/04/07 13:58:13;;;;;;;8.75;7.88;;;;;;;;;;4955833;28;20057;-81
2023/04/07 14:00:40;;;;;;;8.68;7.93;;;;;;;;;;4954391;29;20379;-83
2023/04/07 14:03:08;;;;;;;25.77;23.52;;;;;;;;;;4957219;29;20154;-83
2023/04/07 14:05:36;;;;;;;9.80;8.77;;;;;;;;;;4958887;29;20074;-83
2023/04/07 14:08:03;;;;;;;9.98;9.07;;;;;;;;;;4959699;29;20067;-83
2023/04/07 14:10:32;;;;;;;8.05;6.78;;;;;;;;;;4959641;29;20047;-82
2023/04/07 14:13:00;;;;;;;8.10;7.47;;;;;;;;;;4956398;29;20061;-82
2023/04/07 14:15:27;;;;;;;8.60;7.22;;;;;;;;;;4961243;29;20047;-84
2023/04/07 14:17:55;;;;;;;7.95;7.18;;;;;;;;;;4962618;29;20252;-81
2023/04/07 14:20:22;;;;;;;10.13;9.27;;;;;;;;;;4958677;29;20425;-83
2023/04/07 14:22:53;;;;;;;9.43;8.48;;;;;;;;;;4959834;29;20048;-82
2023/04/07 14:25:21;;;;;;;10.15;9.32;;;;;;;;;;4957939;29;20073;-83
2023/04/07 14:27:48;;;;;;;11.13;8.02;;;;;;;;;;4957217;29;20063;-81
2023/04/07 14:30:15;;;;;;;9.93;9.02;;;;;;;;;;4955273;29;20053;-83
2023/04/07 14:32:43;;;;;;;17.17;15.93;;;;;;;;;;4897277;29;1174350;-81
2023/04/07 14:35:10;;;;;;;9.93;8.98;;;;;;;;;;4951756;29;20122;-81
2023/04/07 14:37:38;;;;;;;9.23;7.13;;;;;;;;;;4957646;29;20066;-82
2023/04/07 14:40:06;;;;;;;11.82;10.73;;;;;;;;;;4941590;29;20059;-82
2023/04/07 14:42:34;;;;;;;9.10;7.72;;;;;;;;;;4958853;29;20082;-80
2023/04/07 14:45:02;;;;;;;147.90;137.63;;;;;;;;;;4958506;29;20061;-81
2023/04/07 14:47:29;;;;;;;15.02;13.75;;;;;;;;;;4956994;29;20527;-80
2023/04/07 14:49:56;;;;;;;51.25;47.45;;;;;;;;;;4952823;29;20100;-83
2023/04/07 14:52:24;;;;;;;10.60;9.60;;;;;;;;;;4947693;29;20078;-81
2023/04/07 14:54:52;;;;;;;11.85;10.80;;;;;;;;;;4947016;29;20050;-81
2023/04/07 14:57:20;;;;;;;8.45;7.65;;;;;;;;;;4941824;29;20055;-82
2023/04/07 14:59:48;;;;;;;10.00;9.10;;;;;;;;;;4956564;29;20062;-80
2023/04/07 15:02:15;;;;;;;8.70;7.68;;;;;;;;;;4960766;29;20047;-80
2023/04/07 15:04:43;;;;;;;8.23;7.53;;;;;;;;;;4953832;29;20047;-80
2023/04/07 15:07:10;;;;;;;7.85;7.18;;;;;;;;;;4948142;29;20065;-81
2023/04/07 15:09:38;;;;;;;7.43;6.65;;;;;;;;;;4960169;29;20086;-83
2023/04/07 15:12:05;;;;;;;9.13;8.32;;;;;;;;;;4958518;29;20078;-81
2023/04/07 15:14:33;;;;;;;10.35;9.30;;;;;;;;;;4956012;29;20540;-82
2023/04/07 15:17:00;;;;;;;9.85;8.93;;;;;;;;;;4941429;29;20047;-81
2023/04/07 15:19:27;;;;;;;7.40;6.75;;;;;;;;;;4959826;29;20051;-82